sensor_id;sensor_type;location;lat;lon;timestamp;temperature;humidity
4429;DHT22;2227;47.810;8.810;2022-07-10T04:32:41;17.80;99.90
4429;DHT22;2227;47.810;8.810;2022-07-10T04:35:08;17.80;99.90
4429;DHT22;2227;47.810;8.810;2022-07-10T04:37:35;17.90;99.90
4429;DHT22;2227;47.810;8.810;2022-07-10T04:40:02;17.90;99.90
4429;DHT22;2227;47.810;8.810;2022-07-10T04:42:29;17.90;99.90
4429;DHT22;2227;47.810;8.810;2022-07-10T04:44:56;18.00;99.90
4429;DHT22;2227;47.810;8.810;2022-07-10T04:47:23;18.00;99.90
4429;DHT22;2227;47.810;8.810;2022-07-10T04:49:50;18.00;99.90
4429;DHT22;2227;47.810;8.810;2022-07-10T04:52:17;18.10;99.90
4429;DHT22;2227;47.810;8.810;2022-07-10T04:54:43;18.10;99.90
4429;DHT22;2227;47.810;8.810;2022-07-10T04:57:10;18.20;99.90
4429;DHT22;2227;47.810;8.810;2022-07-10T04:59:37;18.20;99.90
4429;DHT22;2227;47.810;8.810;2022-07-10T05:02:04;18.20;99.90
4429;DHT22;2227;47.810;8.810;2022-07-10T05:04:31;18.20;99.90
4429;DHT22;2227;47.810;8.810;2022-07-10T05:06:58;18.30;99.90
4429;DHT22;2227;47.810;8.810;2022-07-10T05:09:24;18.20;99.90
4429;DHT22;2227;47.810;8.810;2022-07-10T05:11:51;18.20;99.90
4429;DHT22;2227;47.810;8.810;2022-07-10T05:14:18;18.30;99.90
4429;DHT22;2227;47.810;8.810;2022-07-10T05:16:45;18.40;99.90
4429;DHT22;2227;47.810;8.810;2022-07-10T05:19:11;18.40;99.90
4429;DHT22;2227;47.810;8.810;2022-07-10T05:21:38;18.50;99.90
4429;DHT22;2227;47.810;8.810;2022-07-10T05:24:05;18.60;99.90
4429;DHT22;2227;47.810;8.810;2022-07-10T05:26:32;18.70;99.90
4429;DHT22;2227;47.810;8.810;2022-07-10T05:28:59;18.70;99.90
4429;DHT22;2227;47.810;8.810;2022-07-10T05:31:25;18.70;99.90
4429;DHT22;2227;47.810;8.810;2022-07-10T05:33:52;18.80;99.90
4429;DHT22;2227;47.810;8.810;2022-07-10T05:36:19;18.90;99.90
4429;DHT22;2227;47.810;8.810;2022-07-10T05:38:46;18.90;99.90
4429;DHT22;2227;47.810;8.810;2022-07-10T05:41:13;18.90;99.90
4429;DHT22;2227;47.810;8.810;2022-07-10T05:43:39;18.90;99.90
4429;DHT22;2227;47.810;8.810;2022-07-10T05:46:06;19.00;99.90
4429;DHT22;2227;47.810;8.810;2022-07-10T05:48:33;19.20;99.90
4429;DHT22;2227;47.810;8.810;2022-07-10T05:51:00;19.20;99.90
4429;DHT22;2227;47.810;8.810;2022-07-10T05:53:47;19.30;99.90
4429;DHT22;2227;47.810;8.810;2022-07-10T05:56:13;19.30;99.90
4429;DHT22;2227;47.810;8.810;2022-07-10T05:58:40;19.40;99.90
4429;DHT22;2227;47.810;8.810;2022-07-10T06:01:08;19.50;99.90
4429;DHT22;2227;47.810;8.810;2022-07-10T06:03:35;19.50;99.90
4429;DHT22;2227;47.810;8.810;2022-07-10T06:06:02;19.60;99.90
4429;DHT22;2227;47.810;8.810;2022-07-10T06:08:28;19.60;99.90
4429;DHT22;2227;47.810;8.810;2022-07-10T06:10:55;19.70;99.90
4429;DHT22;2227;47.810;8.810;2022-07-10T06:13:22;19.70;99.90
4429;DHT22;2227;47.810;8.810;2022-07-10T06:15:48;19.70;99.90
4429;DHT22;2227;47.810;8.810;2022-07-10T06:18:15;19.80;99.90
4429;DHT22;2227;47.810;8.810;2022-07-10T06:20:42;19.70;99.90
4429;DHT22;2227;47.810;8.810;2022-07-10T06:23:09;19.80;99.90
4429;DHT22;2227;47.810;8.810;2022-07-10T06:25:36;19.80;99.90
4429;DHT22;2227;47.810;8.810;2022-07-10T06:28:03;20.00;99.90
4429;DHT22;2227;47.810;8.810;2022-07-10T06:30:29;20.10;99.90
4429;DHT22;2227;47.810;8.810;2022-07-10T06:32:56;20.00;99.90
4429;DHT22;2227;47.810;8.810;2022-07-10T06:35:23;20.00;99.90
4429;DHT22;2227;47.810;8.810;2022-07-10T06:37:50;20.20;99.90
4429;DHT22;2227;47.810;8.810;2022-07-10T06:40:20;20.30;99.80
4429;DHT22;2227;47.810;8.810;2022-07-10T06:42:46;20.50;99.30
4429;DHT22;2227;47.810;8.810;2022-07-10T06:45:13;20.50;99.20
4429;DHT22;2227;47.810;8.810;2022-07-10T06:47:40;20.60;99.00
4429;DHT22;2227;47.810;8.810;2022-07-10T06:50:26;20.60;98.60
4429;DHT22;2227;47.810;8.810;2022-07-10T06:52:53;20.80;98.40
4429;DHT22;2227;47.810;8.810;2022-07-10T06:55:20;20.80;98.10
4429;DHT22;2227;47.810;8.810;2022-07-10T06:57:47;20.80;98.10
4429;DHT22;2227;47.810;8.810;2022-07-10T07:00:14;20.80;97.60
4429;DHT22;2227;47.810;8.810;2022-07-10T07:02:42;20.90;97.40
4429;DHT22;2227;47.810;8.810;2022-07-10T07:05:09;20.90;96.90
4429;DHT22;2227;47.810;8.810;2022-07-10T07:07:36;20.80;96.90
4429;DHT22;2227;47.810;8.810;2022-07-10T07:10:04;20.80;97.00
4429;DHT22;2227;47.810;8.810;2022-07-10T07:12:32;20.80;97.20
4429;DHT22;2227;47.810;8.810;2022-07-10T07:14:58;20.90;97.10
4429;DHT22;2227;47.810;8.810;2022-07-10T07:17:25;21.00;97.00
4429;DHT22;2227;47.810;8.810;2022-07-10T07:20:00;21.00;96.90
4429;DHT22;2227;47.810;8.810;2022-07-10T07:22:46;21.20;97.10
4429;DHT22;2227;47.810;8.810;2022-07-10T07:25:31;21.30;96.90
4429;DHT22;2227;47.810;8.810;2022-07-10T07:27:58;21.40;96.90
4429;DHT22;2227;47.810;8.810;2022-07-10T07:30:25;21.50;96.30
4429;DHT22;2227;47.810;8.810;2022-07-10T07:32:52;21.60;96.20
4429;DHT22;2227;47.810;8.810;2022-07-10T07:35:18;21.70;95.30
4429;DHT22;2227;47.810;8.810;2022-07-10T07:37:47;21.80;94.30
4429;DHT22;2227;47.810;8.810;2022-07-10T07:40:20;21.70;94.50
4429;DHT22;2227;47.810;8.810;2022-07-10T07:42:50;21.70;94.50
4429;DHT22;2227;47.810;8.810;2022-07-10T07:45:16;21.70;94.00
4429;DHT22;2227;47.810;8.810;2022-07-10T07:47:45;21.90;93.50
4429;DHT22;2227;47.810;8.810;2022-07-10T07:50:17;21.90;93.70
4429;DHT22;2227;47.810;8.810;2022-07-10T07:52:45;21.90;93.90
4429;DHT22;2227;47.810;8.810;2022-07-10T07:55:13;21.90;94.00
4429;DHT22;2227;47.810;8.810;2022-07-10T07:57:41;21.90;93.80
4429;DHT22;2227;47.810;8.810;2022-07-10T08:00:09;22.00;93.50
4429;DHT22;2227;47.810;8.810;2022-07-10T08:02:37;22.00;93.40
4429;DHT22;2227;47.810;8.810;2022-07-10T08:05:04;22.10;93.20
4429;DHT22;2227;47.810;8.810;2022-07-10T08:07:43;22.20;93.20
4429;DHT22;2227;47.810;8.810;2022-07-10T08:10:15;22.50;92.60
4429;DHT22;2227;47.810;8.810;2022-07-10T08:12:43;22.40;92.90
4429;DHT22;2227;47.810;8.810;2022-07-10T08:15:13;22.50;93.20
4429;DHT22;2227;47.810;8.810;2022-07-10T08:17:40;22.40;93.00
4429;DHT22;2227;47.810;8.810;2022-07-10T08:20:11;22.50;93.00
4429;DHT22;2227;47.810;8.810;2022-07-10T08:22:38;22.50;92.60
4429;DHT22;2227;47.810;8.810;2022-07-10T08:25:05;22.60;92.20
4429;DHT22;2227;47.810;8.810;2022-07-10T08:27:32;22.80;92.10
4429;DHT22;2227;47.810;8.810;2022-07-10T08:29:59;23.10;91.60
4429;DHT22;2227;47.810;8.810;2022-07-10T08:32:27;23.30;90.80
4429;DHT22;2227;47.810;8.810;2022-07-10T08:34:54;23.50;90.50
4429;DHT22;2227;47.810;8.810;2022-07-10T08:37:21;23.80;89.90
4429;DHT22;2227;47.810;8.810;2022-07-10T08:39:49;24.00;87.00
4429;DHT22;2227;47.810;8.810;2022-07-10T08:42:16;24.00;85.00
4429;DHT22;2227;47.810;8.810;2022-07-10T08:44:43;24.10;84.30
4429;DHT22;2227;47.810;8.810;2022-07-10T08:47:09;24.20;83.50
4429;DHT22;2227;47.810;8.810;2022-07-10T08:49:38;24.30;83.60
4429;DHT22;2227;47.810;8.810;2022-07-10T08:54:48;24.40;83.80
4429;DHT22;2227;47.810;8.810;2022-07-10T08:57:15;24.40;81.30
4429;DHT22;2227;47.810;8.810;2022-07-10T08:59:42;24.30;81.70
4429;DHT22;2227;47.810;8.810;2022-07-10T09:02:09;24.40;81.90
4429;DHT22;2227;47.810;8.810;2022-07-10T09:04:36;24.50;80.90
4429;DHT22;2227;47.810;8.810;2022-07-10T09:07:03;24.50;80.60
4429;DHT22;2227;47.810;8.810;2022-07-10T09:09:31;24.50;79.90
4429;DHT22;2227;47.810;8.810;2022-07-10T09:11:58;24.40;79.90
4429;DHT22;2227;47.810;8.810;2022-07-10T09:14:26;24.50;79.00
4429;DHT22;2227;47.810;8.810;2022-07-10T09:17:01;24.10;79.40
4429;DHT22;2227;47.810;8.810;2022-07-10T09:19:29;24.20;79.10
4429;DHT22;2227;47.810;8.810;2022-07-10T09:22:05;24.40;76.50
4429;DHT22;2227;47.810;8.810;2022-07-10T09:24:42;24.40;75.80
4429;DHT22;2227;47.810;8.810;2022-07-10T09:27:11;24.50;76.80
4429;DHT22;2227;47.810;8.810;2022-07-10T09:29:49;24.60;76.40
4429;DHT22;2227;47.810;8.810;2022-07-10T09:32:18;24.90;75.30
4429;DHT22;2227;47.810;8.810;2022-07-10T09:34:47;25.20;72.90
4429;DHT22;2227;47.810;8.810;2022-07-10T09:37:28;25.30;72.80
4429;DHT22;2227;47.810;8.810;2022-07-10T09:48:01;24.40;71.60
4429;DHT22;2227;47.810;8.810;2022-07-10T09:50:32;24.30;71.00
4429;DHT22;2227;47.810;8.810;2022-07-10T09:53:04;24.60;74.70
4429;DHT22;2227;47.810;8.810;2022-07-10T09:55:34;24.90;72.70
4429;DHT22;2227;47.810;8.810;2022-07-10T09:58:06;25.30;70.80
4429;DHT22;2227;47.810;8.810;2022-07-10T10:00:40;25.60;68.10
4429;DHT22;2227;47.810;8.810;2022-07-10T10:03:09;25.40;66.90
4429;DHT22;2227;47.810;8.810;2022-07-10T10:05:55;25.10;67.20
4429;DHT22;2227;47.810;8.810;2022-07-10T10:08:25;24.60;68.00
4429;DHT22;2227;47.810;8.810;2022-07-10T10:10:57;24.30;70.10
4429;DHT22;2227;47.810;8.810;2022-07-10T10:13:26;24.50;71.30
4429;DHT22;2227;47.810;8.810;2022-07-10T10:15:57;24.80;68.90
4429;DHT22;2227;47.810;8.810;2022-07-10T10:18:25;25.20;67.90
4429;DHT22;2227;47.810;8.810;2022-07-10T10:20:56;25.40;67.90
4429;DHT22;2227;47.810;8.810;2022-07-10T10:23:24;25.80;69.30
4429;DHT22;2227;47.810;8.810;2022-07-10T10:25:53;26.20;66.20
4429;DHT22;2227;47.810;8.810;2022-07-10T10:28:22;26.40;64.80
4429;DHT22;2227;47.810;8.810;2022-07-10T10:31:00;26.70;65.20
4429;DHT22;2227;47.810;8.810;2022-07-10T10:36:10;27.20;62.80
4429;DHT22;2227;47.810;8.810;2022-07-10T10:49:24;27.20;61.60
4429;DHT22;2227;47.810;8.810;2022-07-10T10:52:08;27.30;61.30
4429;DHT22;2227;47.810;8.810;2022-07-10T11:00:00;27.30;61.00
4429;DHT22;2227;47.810;8.810;2022-07-10T11:02:31;27.60;60.50
4429;DHT22;2227;47.810;8.810;2022-07-10T11:10:29;27.50;59.00
4429;DHT22;2227;47.810;8.810;2022-07-10T11:13:16;27.60;58.10
4429;DHT22;2227;47.810;8.810;2022-07-10T11:15:48;27.40;58.80
4429;DHT22;2227;47.810;8.810;2022-07-10T11:18:16;27.30;58.60
4429;DHT22;2227;47.810;8.810;2022-07-10T11:20:46;27.60;59.00
4429;DHT22;2227;47.810;8.810;2022-07-10T11:26:05;28.10;58.40
4429;DHT22;2227;47.810;8.810;2022-07-10T11:28:56;28.40;57.70
4429;DHT22;2227;47.810;8.810;2022-07-10T11:31:25;28.10;57.40
4429;DHT22;2227;47.810;8.810;2022-07-10T11:33:54;28.10;57.10
4429;DHT22;2227;47.810;8.810;2022-07-10T11:36:23;28.40;55.80
4429;DHT22;2227;47.810;8.810;2022-07-10T11:39:03;28.40;56.20
4429;DHT22;2227;47.810;8.810;2022-07-10T11:41:32;28.30;56.30
4429;DHT22;2227;47.810;8.810;2022-07-10T11:44:03;27.80;56.90
4429;DHT22;2227;47.810;8.810;2022-07-10T11:46:34;27.50;57.50
4429;DHT22;2227;47.810;8.810;2022-07-10T11:49:05;26.90;57.80
4429;DHT22;2227;47.810;8.810;2022-07-10T11:51:36;26.60;58.10
4429;DHT22;2227;47.810;8.810;2022-07-10T11:54:15;26.60;59.00
4429;DHT22;2227;47.810;8.810;2022-07-10T11:56:50;26.70;59.10
4429;DHT22;2227;47.810;8.810;2022-07-10T11:59:24;27.10;59.00
4429;DHT22;2227;47.810;8.810;2022-07-10T12:01:53;27.60;59.20
4429;DHT22;2227;47.810;8.810;2022-07-10T12:04:22;27.80;58.80
4429;DHT22;2227;47.810;8.810;2022-07-10T12:06:52;27.90;57.40
4429;DHT22;2227;47.810;8.810;2022-07-10T12:09:21;27.90;57.50
4429;DHT22;2227;47.810;8.810;2022-07-10T12:12:06;27.80;57.50
4429;DHT22;2227;47.810;8.810;2022-07-10T12:14:36;27.80;58.10
4429;DHT22;2227;47.810;8.810;2022-07-10T12:17:10;27.70;56.80
4429;DHT22;2227;47.810;8.810;2022-07-10T12:19:39;27.70;56.50
4429;DHT22;2227;47.810;8.810;2022-07-10T12:22:07;27.50;56.00
4429;DHT22;2227;47.810;8.810;2022-07-10T12:24:34;27.30;56.60
4429;DHT22;2227;47.810;8.810;2022-07-10T12:27:02;27.20;57.60
4429;DHT22;2227;47.810;8.810;2022-07-10T12:29:30;27.40;58.20
4429;DHT22;2227;47.810;8.810;2022-07-10T12:32:00;27.90;57.20
4429;DHT22;2227;47.810;8.810;2022-07-10T12:34:38;28.50;56.10
4429;DHT22;2227;47.810;8.810;2022-07-10T12:37:13;29.00;55.60
4429;DHT22;2227;47.810;8.810;2022-07-10T12:39:51;29.30;54.70
4429;DHT22;2227;47.810;8.810;2022-07-10T12:42:25;29.40;54.20
4429;DHT22;2227;47.810;8.810;2022-07-10T12:44:52;29.70;52.90
4429;DHT22;2227;47.810;8.810;2022-07-10T12:47:21;29.70;52.70
4429;DHT22;2227;47.810;8.810;2022-07-10T12:50:03;29.60;51.60
4429;DHT22;2227;47.810;8.810;2022-07-10T12:55:18;29.70;52.70
4429;DHT22;2227;47.810;8.810;2022-07-10T12:57:58;30.00;52.50
4429;DHT22;2227;47.810;8.810;2022-07-10T13:00:31;30.40;53.30
4429;DHT22;2227;47.810;8.810;2022-07-10T13:03:08;30.60;53.50
4429;DHT22;2227;47.810;8.810;2022-07-10T13:05:42;30.60;50.70
4429;DHT22;2227;47.810;8.810;2022-07-10T13:08:16;30.50;51.20
4429;DHT22;2227;47.810;8.810;2022-07-10T13:10:51;30.40;51.70
4429;DHT22;2227;47.810;8.810;2022-07-10T13:13:19;30.50;50.70
4429;DHT22;2227;47.810;8.810;2022-07-10T13:15:48;30.70;51.80
4429;DHT22;2227;47.810;8.810;2022-07-10T13:18:22;30.60;51.00
4429;DHT22;2227;47.810;8.810;2022-07-10T13:20:51;30.20;50.30
4429;DHT22;2227;47.810;8.810;2022-07-10T13:23:25;29.80;52.00
4429;DHT22;2227;47.810;8.810;2022-07-10T13:25:53;30.00;51.60
4429;DHT22;2227;47.810;8.810;2022-07-10T13:28:20;30.30;51.70
4429;DHT22;2227;47.810;8.810;2022-07-10T13:30:47;30.50;49.70
4429;DHT22;2227;47.810;8.810;2022-07-10T13:33:14;30.20;50.60
4429;DHT22;2227;47.810;8.810;2022-07-10T13:35:41;30.20;49.80
4429;DHT22;2227;47.810;8.810;2022-07-10T13:38:08;29.90;50.00
4429;DHT22;2227;47.810;8.810;2022-07-10T13:40:42;29.80;50.80
4429;DHT22;2227;47.810;8.810;2022-07-10T13:43:10;29.90;51.70
4429;DHT22;2227;47.810;8.810;2022-07-10T13:45:40;29.90;51.40
4429;DHT22;2227;47.810;8.810;2022-07-10T13:48:13;29.80;50.70
4429;DHT22;2227;47.810;8.810;2022-07-10T13:50:44;29.70;51.20
4429;DHT22;2227;47.810;8.810;2022-07-10T13:53:14;29.60;51.30
4429;DHT22;2227;47.810;8.810;2022-07-10T13:55:41;28.90;51.80
4429;DHT22;2227;47.810;8.810;2022-07-10T13:58:09;28.40;54.00
4429;DHT22;2227;47.810;8.810;2022-07-10T14:00:36;28.20;54.60
4429;DHT22;2227;47.810;8.810;2022-07-10T14:03:04;28.10;54.80
4429;DHT22;2227;47.810;8.810;2022-07-10T14:05:32;28.30;54.90
4429;DHT22;2227;47.810;8.810;2022-07-10T14:07:59;28.40;53.00
4429;DHT22;2227;47.810;8.810;2022-07-10T14:10:27;28.50;52.80
4429;DHT22;2227;47.810;8.810;2022-07-10T14:12:54;28.50;53.50
4429;DHT22;2227;47.810;8.810;2022-07-10T14:15:21;28.50;54.20
4429;DHT22;2227;47.810;8.810;2022-07-10T14:17:48;28.40;54.10
4429;DHT22;2227;47.810;8.810;2022-07-10T14:20:17;28.50;53.70
4429;DHT22;2227;47.810;8.810;2022-07-10T14:22:43;28.60;53.40
4429;DHT22;2227;47.810;8.810;2022-07-10T14:25:12;28.60;53.30
4429;DHT22;2227;47.810;8.810;2022-07-10T14:27:40;28.40;51.80
4429;DHT22;2227;47.810;8.810;2022-07-10T14:30:07;27.90;52.20
4429;DHT22;2227;47.810;8.810;2022-07-10T14:32:34;27.70;52.50
4429;DHT22;2227;47.810;8.810;2022-07-10T14:35:01;27.70;53.60
4429;DHT22;2227;47.810;8.810;2022-07-10T14:37:28;27.20;55.90
4429;DHT22;2227;47.810;8.810;2022-07-10T14:39:55;27.30;57.40
4429;DHT22;2227;47.810;8.810;2022-07-10T14:42:22;27.00;58.20
4429;DHT22;2227;47.810;8.810;2022-07-10T14:44:48;26.60;58.60
4429;DHT22;2227;47.810;8.810;2022-07-10T14:47:15;26.20;59.90
4429;DHT22;2227;47.810;8.810;2022-07-10T14:49:43;25.90;60.80
4429;DHT22;2227;47.810;8.810;2022-07-10T14:52:10;25.90;61.30
4429;DHT22;2227;47.810;8.810;2022-07-10T14:54:37;25.70;60.50
4429;DHT22;2227;47.810;8.810;2022-07-10T14:57:04;25.40;61.60
4429;DHT22;2227;47.810;8.810;2022-07-10T14:59:31;25.30;63.10
4429;DHT22;2227;47.810;8.810;2022-07-10T15:01:58;25.30;62.80
4429;DHT22;2227;47.810;8.810;2022-07-10T15:04:25;25.30;62.30
4429;DHT22;2227;47.810;8.810;2022-07-10T15:06:51;25.00;62.60
4429;DHT22;2227;47.810;8.810;2022-07-10T15:09:18;24.90;62.70
4429;DHT22;2227;47.810;8.810;2022-07-10T15:11:45;24.90;63.00
4429;DHT22;2227;47.810;8.810;2022-07-10T15:14:12;24.80;64.00
4429;DHT22;2227;47.810;8.810;2022-07-10T15:16:39;24.80;63.10
4429;DHT22;2227;47.810;8.810;2022-07-10T15:19:06;24.80;63.80
4429;DHT22;2227;47.810;8.810;2022-07-10T15:21:35;25.00;63.80
4429;DHT22;2227;47.810;8.810;2022-07-10T15:24:02;25.10;63.40
4429;DHT22;2227;47.810;8.810;2022-07-10T15:26:29;25.10;64.20
4429;DHT22;2227;47.810;8.810;2022-07-10T15:28:55;24.90;64.50
4429;DHT22;2227;47.810;8.810;2022-07-10T15:31:25;24.70;65.60
4429;DHT22;2227;47.810;8.810;2022-07-10T15:33:52;24.60;65.70
4429;DHT22;2227;47.810;8.810;2022-07-10T15:36:19;24.40;66.40
4429;DHT22;2227;47.810;8.810;2022-07-10T15:38:48;24.30;65.60
4429;DHT22;2227;47.810;8.810;2022-07-10T15:41:15;24.20;66.30
4429;DHT22;2227;47.810;8.810;2022-07-10T15:43:41;24.10;67.00
4429;DHT22;2227;47.810;8.810;2022-07-10T15:46:10;24.10;67.00
4429;DHT22;2227;47.810;8.810;2022-07-10T15:48:39;24.10;67.20
4429;DHT22;2227;47.810;8.810;2022-07-10T15:51:06;24.10;68.20
4429;DHT22;2227;47.810;8.810;2022-07-10T15:53:33;24.10;67.30
4429;DHT22;2227;47.810;8.810;2022-07-10T15:56:00;24.20;67.10
4429;DHT22;2227;47.810;8.810;2022-07-10T15:58:29;24.20;66.10
4429;DHT22;2227;47.810;8.810;2022-07-10T16:00:56;24.10;66.30
4429;DHT22;2227;47.810;8.810;2022-07-10T16:03:22;24.30;66.30
4429;DHT22;2227;47.810;8.810;2022-07-10T16:05:49;24.40;65.80
4429;DHT22;2227;47.810;8.810;2022-07-10T16:08:16;24.50;64.80
4429;DHT22;2227;47.810;8.810;2022-07-10T16:10:47;24.40;65.70
4429;DHT22;2227;47.810;8.810;2022-07-10T16:13:14;24.50;66.30
4429;DHT22;2227;47.810;8.810;2022-07-10T16:15:41;24.40;66.20
4429;DHT22;2227;47.810;8.810;2022-07-10T16:18:08;24.50;66.30
4429;DHT22;2227;47.810;8.810;2022-07-10T16:20:35;24.50;66.30
4429;DHT22;2227;47.810;8.810;2022-07-10T16:23:04;24.60;66.50
4429;DHT22;2227;47.810;8.810;2022-07-10T16:25:31;24.70;66.20
4429;DHT22;2227;47.810;8.810;2022-07-10T16:28:17;24.80;66.40
4429;DHT22;2227;47.810;8.810;2022-07-10T16:30:45;24.90;66.20
4429;DHT22;2227;47.810;8.810;2022-07-10T16:33:12;25.10;65.40
4429;DHT22;2227;47.810;8.810;2022-07-10T16:35:39;25.10;65.40
4429;DHT22;2227;47.810;8.810;2022-07-10T16:38:06;25.00;65.60
4429;DHT22;2227;47.810;8.810;2022-07-10T16:40:34;25.00;64.90
4429;DHT22;2227;47.810;8.810;2022-07-10T16:43:01;25.00;64.90
4429;DHT22;2227;47.810;8.810;2022-07-10T16:45:28;24.90;65.50
4429;DHT22;2227;47.810;8.810;2022-07-10T16:47:55;24.90;66.50
4429;DHT22;2227;47.810;8.810;2022-07-10T16:50:24;24.90;67.50
4429;DHT22;2227;47.810;8.810;2022-07-10T16:52:52;24.90;66.30
4429;DHT22;2227;47.810;8.810;2022-07-10T16:55:19;24.90;65.30
4429;DHT22;2227;47.810;8.810;2022-07-10T16:57:46;24.90;61.70
4429;DHT22;2227;47.810;8.810;2022-07-10T17:00:13;24.80;59.70
4429;DHT22;2227;47.810;8.810;2022-07-10T17:02:40;24.70;59.90
4429;DHT22;2227;47.810;8.810;2022-07-10T17:05:08;24.50;59.50
4429;DHT22;2227;47.810;8.810;2022-07-10T17:07:39;24.40;59.80
4429;DHT22;2227;47.810;8.810;2022-07-10T17:10:08;24.40;59.60
4429;DHT22;2227;47.810;8.810;2022-07-10T17:12:36;24.30;59.20
4429;DHT22;2227;47.810;8.810;2022-07-10T17:15:04;24.40;58.50
4429;DHT22;2227;47.810;8.810;2022-07-10T17:17:32;24.20;58.90
4429;DHT22;2227;47.810;8.810;2022-07-10T17:19:59;24.20;58.90
4429;DHT22;2227;47.810;8.810;2022-07-10T17:22:25;24.20;58.50
4429;DHT22;2227;47.810;8.810;2022-07-10T17:24:52;24.10;58.30
4429;DHT22;2227;47.810;8.810;2022-07-10T17:27:20;24.10;58.70
4429;DHT22;2227;47.810;8.810;2022-07-10T17:29:47;24.20;58.40
4429;DHT22;2227;47.810;8.810;2022-07-10T17:32:14;24.00;57.30
4429;DHT22;2227;47.810;8.810;2022-07-10T17:34:41;24.00;57.30
4429;DHT22;2227;47.810;8.810;2022-07-10T17:37:08;24.00;57.50
4429;DHT22;2227;47.810;8.810;2022-07-10T17:39:35;24.10;57.60
4429;DHT22;2227;47.810;8.810;2022-07-10T17:42:03;24.10;57.50
4429;DHT22;2227;47.810;8.810;2022-07-10T17:44:30;24.00;57.80
4429;DHT22;2227;47.810;8.810;2022-07-10T17:46:57;23.90;58.40
4429;DHT22;2227;47.810;8.810;2022-07-10T17:49:24;23.90;57.70
4429;DHT22;2227;47.810;8.810;2022-07-10T17:51:52;23.90;57.70
4429;DHT22;2227;47.810;8.810;2022-07-10T17:54:19;23.80;57.20
4429;DHT22;2227;47.810;8.810;2022-07-10T17:56:46;23.80;56.60
4429;DHT22;2227;47.810;8.810;2022-07-10T17:59:13;23.70;56.40
4429;DHT22;2227;47.810;8.810;2022-07-10T18:01:40;23.40;56.40
4429;DHT22;2227;47.810;8.810;2022-07-10T18:04:07;23.10;57.80
4429;DHT22;2227;47.810;8.810;2022-07-10T18:06:34;23.20;57.00
4429;DHT22;2227;47.810;8.810;2022-07-10T18:09:03;23.20;57.70
4429;DHT22;2227;47.810;8.810;2022-07-10T18:11:30;23.30;57.30
4429;DHT22;2227;47.810;8.810;2022-07-10T18:13:57;23.30;57.20
4429;DHT22;2227;47.810;8.810;2022-07-10T18:16:24;23.30;57.40
4429;DHT22;2227;47.810;8.810;2022-07-10T18:18:53;23.30;57.70
4429;DHT22;2227;47.810;8.810;2022-07-10T18:21:22;23.20;57.50
4429;DHT22;2227;47.810;8.810;2022-07-10T18:23:49;23.20;57.70
4429;DHT22;2227;47.810;8.810;2022-07-10T18:26:16;23.10;58.00
4429;DHT22;2227;47.810;8.810;2022-07-10T18:28:44;23.10;58.30
4429;DHT22;2227;47.810;8.810;2022-07-10T18:31:11;23.10;58.40
4429;DHT22;2227;47.810;8.810;2022-07-10T18:33:39;23.10;58.40
4429;DHT22;2227;47.810;8.810;2022-07-10T18:36:27;22.90;58.70
4429;DHT22;2227;47.810;8.810;2022-07-10T18:38:54;22.80;59.30
4429;DHT22;2227;47.810;8.810;2022-07-10T18:41:21;22.80;59.50
4429;DHT22;2227;47.810;8.810;2022-07-10T18:43:47;22.60;59.20
4429;DHT22;2227;47.810;8.810;2022-07-10T18:46:14;22.60;59.50
4429;DHT22;2227;47.810;8.810;2022-07-10T18:48:41;22.50;59.80
4429;DHT22;2227;47.810;8.810;2022-07-10T18:51:08;22.30;60.10
4429;DHT22;2227;47.810;8.810;2022-07-10T18:53:43;22.30;60.80
4429;DHT22;2227;47.810;8.810;2022-07-10T18:56:11;22.10;60.50
4429;DHT22;2227;47.810;8.810;2022-07-10T18:58:38;21.90;61.20
4429;DHT22;2227;47.810;8.810;2022-07-10T19:01:05;21.80;61.40
4429;DHT22;2227;47.810;8.810;2022-07-10T19:03:32;21.70;61.80
4429;DHT22;2227;47.810;8.810;2022-07-10T19:05:59;21.50;62.20
4429;DHT22;2227;47.810;8.810;2022-07-10T19:08:26;21.40;62.30
4429;DHT22;2227;47.810;8.810;2022-07-10T19:10:53;21.40;63.00
4429;DHT22;2227;47.810;8.810;2022-07-10T19:13:20;21.30;63.20
4429;DHT22;2227;47.810;8.810;2022-07-10T19:15:49;21.10;63.50
4429;DHT22;2227;47.810;8.810;2022-07-10T19:18:16;21.10;63.90
4429;DHT22;2227;47.810;8.810;2022-07-10T19:20:44;21.00;64.00
4429;DHT22;2227;47.810;8.810;2022-07-10T19:23:11;20.90;64.30
4429;DHT22;2227;47.810;8.810;2022-07-10T19:25:38;20.80;64.50
4429;DHT22;2227;47.810;8.810;2022-07-10T19:28:06;20.80;64.90
4429;DHT22;2227;47.810;8.810;2022-07-10T19:30:34;20.70;65.40
4429;DHT22;2227;47.810;8.810;2022-07-10T19:33:01;20.60;65.50
4429;DHT22;2227;47.810;8.810;2022-07-10T19:35:29;20.60;65.70
4429;DHT22;2227;47.810;8.810;2022-07-10T19:37:56;20.50;66.10
4429;DHT22;2227;47.810;8.810;2022-07-10T19:40:23;20.40;66.30
4429;DHT22;2227;47.810;8.810;2022-07-10T19:42:50;20.30;66.60
4429;DHT22;2227;47.810;8.810;2022-07-10T19:45:17;20.20;67.20
4429;DHT22;2227;47.810;8.810;2022-07-10T19:47:44;20.20;67.30
4429;DHT22;2227;47.810;8.810;2022-07-10T19:50:12;20.10;67.50
4429;DHT22;2227;47.810;8.810;2022-07-10T19:52:39;20.10;68.40
4429;DHT22;2227;47.810;8.810;2022-07-10T19:55:06;19.90;68.80
4429;DHT22;2227;47.810;8.810;2022-07-10T19:57:35;19.80;69.50
4429;DHT22;2227;47.810;8.810;2022-07-10T20:00:05;19.80;70.00
4429;DHT22;2227;47.810;8.810;2022-07-10T20:02:32;19.70;70.80
4429;DHT22;2227;47.810;8.810;2022-07-10T20:04:59;19.60;70.90
4429;DHT22;2227;47.810;8.810;2022-07-10T20:07:26;19.50;71.00
4429;DHT22;2227;47.810;8.810;2022-07-10T20:09:53;19.50;71.00
4429;DHT22;2227;47.810;8.810;2022-07-10T20:12:20;19.40;71.50
4429;DHT22;2227;47.810;8.810;2022-07-10T20:14:47;19.30;71.60
4429;DHT22;2227;47.810;8.810;2022-07-10T20:17:13;19.20;72.20
4429;DHT22;2227;47.810;8.810;2022-07-10T20:19:40;19.10;72.50
4429;DHT22;2227;47.810;8.810;2022-07-10T20:22:08;19.10;72.70
4429;DHT22;2227;47.810;8.810;2022-07-10T20:24:35;19.00;73.00
4429;DHT22;2227;47.810;8.810;2022-07-10T20:27:02;19.00;73.80
4429;DHT22;2227;47.810;8.810;2022-07-10T20:29:30;18.90;74.50
4429;DHT22;2227;47.810;8.810;2022-07-10T20:31:57;18.90;74.70
4429;DHT22;2227;47.810;8.810;2022-07-10T20:34:24;18.80;75.50
4429;DHT22;2227;47.810;8.810;2022-07-10T20:36:50;18.80;75.30
4429;DHT22;2227;47.810;8.810;2022-07-10T20:39:36;18.60;75.80
4429;DHT22;2227;47.810;8.810;2022-07-10T20:42:04;18.60;77.00
4429;DHT22;2227;47.810;8.810;2022-07-10T20:44:32;18.50;77.30
4429;DHT22;2227;47.810;8.810;2022-07-10T20:46:59;18.30;77.70
4429;DHT22;2227;47.810;8.810;2022-07-10T20:49:26;18.30;78.00
4429;DHT22;2227;47.810;8.810;2022-07-10T20:51:53;18.30;78.30
4429;DHT22;2227;47.810;8.810;2022-07-10T20:54:20;18.20;78.70
4429;DHT22;2227;47.810;8.810;2022-07-10T20:56:46;18.10;78.80
4429;DHT22;2227;47.810;8.810;2022-07-10T20:59:13;17.90;79.00
4429;DHT22;2227;47.810;8.810;2022-07-10T21:01:40;17.70;79.80
4429;DHT22;2227;47.810;8.810;2022-07-10T21:04:07;17.60;81.00
4429;DHT22;2227;47.810;8.810;2022-07-10T21:06:34;17.50;80.90
4429;DHT22;2227;47.810;8.810;2022-07-10T21:09:01;17.50;81.40
4429;DHT22;2227;47.810;8.810;2022-07-10T21:11:27;17.40;81.40
4429;DHT22;2227;47.810;8.810;2022-07-10T21:13:57;17.40;81.70
4429;DHT22;2227;47.810;8.810;2022-07-10T21:16:24;17.30;82.10
4429;DHT22;2227;47.810;8.810;2022-07-10T21:18:51;17.20;82.60
4429;DHT22;2227;47.810;8.810;2022-07-10T21:21:18;17.10;83.50
4429;DHT22;2227;47.810;8.810;2022-07-10T21:23:45;17.10;83.80